sensor_id;sensor_type;location;lat;lon;timestamp;temperature;humidity
19665;DHT22;9980;51.020;7.772;2023-09-19T00:00:47;19.10;99.90
19665;DHT22;9980;51.020;7.772;2023-09-19T00:03:16;19.10;99.90
19665;DHT22;9980;51.020;7.772;2023-09-19T00:05:43;19.00;99.90
19665;DHT22;9980;51.020;7.772;2023-09-19T00:08:11;19.00;99.90
19665;DHT22;9980;51.020;7.772;2023-09-19T00:10:40;19.00;99.90
19665;DHT22;9980;51.020;7.772;2023-09-19T00:13:08;19.00;99.90
19665;DHT22;9980;51.020;7.772;2023-09-19T00:15:44;18.90;99.90
19665;DHT22;9980;51.020;7.772;2023-09-19T00:18:18;18.90;99.90
19665;DHT22;9980;51.020;7.772;2023-09-19T00:20:48;18.90;99.90
19665;DHT22;9980;51.020;7.772;2023-09-19T00:23:19;18.90;99.90
19665;DHT22;9980;51.020;7.772;2023-09-19T00:25:47;18.90;99.90
19665;DHT22;9980;51.020;7.772;2023-09-19T00:28:14;18.90;99.90
19665;DHT22;9980;51.020;7.772;2023-09-19T00:30:45;18.80;99.90
19665;DHT22;9980;51.020;7.772;2023-09-19T00:33:17;18.80;99.90
19665;DHT22;9980;51.020;7.772;2023-09-19T00:35:50;18.80;99.90
19665;DHT22;9980;51.020;7.772;2023-09-19T00:38:20;18.80;99.90
19665;DHT22;9980;51.020;7.772;2023-09-19T00:40:50;18.80;99.90
19665;DHT22;9980;51.020;7.772;2023-09-19T00:43:21;18.70;99.90
19665;DHT22;9980;51.020;7.772;2023-09-19T00:45:54;18.70;99.90
19665;DHT22;9980;51.020;7.772;2023-09-19T00:48:22;18.70;99.90
19665;DHT22;9980;51.020;7.772;2023-09-19T00:50:52;18.60;99.90
19665;DHT22;9980;51.020;7.772;2023-09-19T00:53:21;18.60;99.90
19665;DHT22;9980;51.020;7.772;2023-09-19T00:55:50;18.60;99.90
19665;DHT22;9980;51.020;7.772;2023-09-19T00:58:18;18.50;99.90
19665;DHT22;9980;51.020;7.772;2023-09-19T01:00:48;18.50;99.90
19665;DHT22;9980;51.020;7.772;2023-09-19T01:03:17;18.50;99.90
19665;DHT22;9980;51.020;7.772;2023-09-19T01:05:45;18.40;99.90
19665;DHT22;9980;51.020;7.772;2023-09-19T01:08:12;18.30;99.90
19665;DHT22;9980;51.020;7.772;2023-09-19T01:11:14;18.30;99.90
19665;DHT22;9980;51.020;7.772;2023-09-19T01:16:56;18.20;99.90
19665;DHT22;9980;51.020;7.772;2023-09-19T01:22:58;18.10;99.90
19665;DHT22;9980;51.020;7.772;2023-09-19T01:31:10;17.90;99.90
19665;DHT22;9980;51.020;7.772;2023-09-19T01:33:58;17.90;99.90
19665;DHT22;9980;51.020;7.772;2023-09-19T01:36:29;17.80;99.90
19665;DHT22;9980;51.020;7.772;2023-09-19T01:39:02;17.80;99.90
19665;DHT22;9980;51.020;7.772;2023-09-19T01:41:47;17.80;99.90
19665;DHT22;9980;51.020;7.772;2023-09-19T01:47:37;17.70;99.90
19665;DHT22;9980;51.020;7.772;2023-09-19T01:53:10;17.70;99.90
19665;DHT22;9980;51.020;7.772;2023-09-19T01:55:48;17.70;99.90
19665;DHT22;9980;51.020;7.772;2023-09-19T02:01:16;17.70;99.90
19665;DHT22;9980;51.020;7.772;2023-09-19T02:03:47;17.70;99.90
19665;DHT22;9980;51.020;7.772;2023-09-19T02:06:16;17.70;99.90
19665;DHT22;9980;51.020;7.772;2023-09-19T02:08:45;17.70;99.90
19665;DHT22;9980;51.020;7.772;2023-09-19T02:11:14;17.70;99.90
19665;DHT22;9980;51.020;7.772;2023-09-19T02:13:42;17.70;99.90
19665;DHT22;9980;51.020;7.772;2023-09-19T02:16:11;17.70;99.90
19665;DHT22;9980;51.020;7.772;2023-09-19T02:18:39;17.70;99.90
19665;DHT22;9980;51.020;7.772;2023-09-19T02:21:06;17.70;99.90
19665;DHT22;9980;51.020;7.772;2023-09-19T02:23:33;17.70;99.90
19665;DHT22;9980;51.020;7.772;2023-09-19T02:26:00;17.70;99.90
19665;DHT22;9980;51.020;7.772;2023-09-19T02:28:27;17.70;99.90
19665;DHT22;9980;51.020;7.772;2023-09-19T02:30:59;17.70;99.90
19665;DHT22;9980;51.020;7.772;2023-09-19T02:33:26;17.70;99.90
19665;DHT22;9980;51.020;7.772;2023-09-19T02:35:56;17.70;99.90
19665;DHT22;9980;51.020;7.772;2023-09-19T02:38:30;17.70;99.90
19665;DHT22;9980;51.020;7.772;2023-09-19T02:40:57;17.70;99.90
19665;DHT22;9980;51.020;7.772;2023-09-19T02:43:24;17.70;99.90
19665;DHT22;9980;51.020;7.772;2023-09-19T02:45:51;17.70;99.90
19665;DHT22;9980;51.020;7.772;2023-09-19T02:48:21;17.70;99.90
19665;DHT22;9980;51.020;7.772;2023-09-19T02:50:52;17.70;99.90
19665;DHT22;9980;51.020;7.772;2023-09-19T02:53:19;17.70;99.90
19665;DHT22;9980;51.020;7.772;2023-09-19T02:55:47;17.70;99.90
19665;DHT22;9980;51.020;7.772;2023-09-19T02:58:15;17.70;99.90
19665;DHT22;9980;51.020;7.772;2023-09-19T03:00:42;17.70;99.90
19665;DHT22;9980;51.020;7.772;2023-09-19T03:03:13;17.70;99.90
19665;DHT22;9980;51.020;7.772;2023-09-19T03:05:42;17.70;99.90
19665;DHT22;9980;51.020;7.772;2023-09-19T03:08:15;17.60;99.90
19665;DHT22;9980;51.020;7.772;2023-09-19T03:10:46;17.60;99.90
19665;DHT22;9980;51.020;7.772;2023-09-19T03:13:14;17.60;99.90
19665;DHT22;9980;51.020;7.772;2023-09-19T03:15:42;17.60;99.90
19665;DHT22;9980;51.020;7.772;2023-09-19T03:18:16;17.60;99.90
19665;DHT22;9980;51.020;7.772;2023-09-19T03:20:53;17.60;99.90
19665;DHT22;9980;51.020;7.772;2023-09-19T03:23:22;17.50;99.90
19665;DHT22;9980;51.020;7.772;2023-09-19T03:25:49;17.50;99.90
19665;DHT22;9980;51.020;7.772;2023-09-19T03:28:17;17.50;99.90
19665;DHT22;9980;51.020;7.772;2023-09-19T03:30:44;17.50;99.90
19665;DHT22;9980;51.020;7.772;2023-09-19T03:33:11;17.50;99.90
19665;DHT22;9980;51.020;7.772;2023-09-19T03:35:39;17.50;99.90
19665;DHT22;9980;51.020;7.772;2023-09-19T03:38:06;17.50;99.90
19665;DHT22;9980;51.020;7.772;2023-09-19T03:40:33;17.40;99.90
19665;DHT22;9980;51.020;7.772;2023-09-19T03:43:01;17.40;99.90
19665;DHT22;9980;51.020;7.772;2023-09-19T03:45:29;17.40;99.90
19665;DHT22;9980;51.020;7.772;2023-09-19T03:47:56;17.40;99.90
19665;DHT22;9980;51.020;7.772;2023-09-19T03:50:24;17.40;99.90
19665;DHT22;9980;51.020;7.772;2023-09-19T03:52:56;17.40;99.90
19665;DHT22;9980;51.020;7.772;2023-09-19T03:55:23;17.30;99.90
19665;DHT22;9980;51.020;7.772;2023-09-19T03:57:50;17.30;99.90
19665;DHT22;9980;51.020;7.772;2023-09-19T04:00:18;17.30;99.90
19665;DHT22;9980;51.020;7.772;2023-09-19T04:02:48;17.30;99.90
19665;DHT22;9980;51.020;7.772;2023-09-19T04:05:16;17.20;99.90
19665;DHT22;9980;51.020;7.772;2023-09-19T04:07:45;17.20;99.90
19665;DHT22;9980;51.020;7.772;2023-09-19T04:10:13;17.20;99.90
19665;DHT22;9980;51.020;7.772;2023-09-19T04:12:41;17.20;99.90
19665;DHT22;9980;51.020;7.772;2023-09-19T04:15:17;17.20;99.90
19665;DHT22;9980;51.020;7.772;2023-09-19T04:17:44;17.10;99.90
19665;DHT22;9980;51.020;7.772;2023-09-19T04:20:11;17.10;99.90
19665;DHT22;9980;51.020;7.772;2023-09-19T04:22:41;17.10;99.90
19665;DHT22;9980;51.020;7.772;2023-09-19T04:25:08;17.00;99.90
19665;DHT22;9980;51.020;7.772;2023-09-19T04:27:35;17.00;99.90
19665;DHT22;9980;51.020;7.772;2023-09-19T04:30:03;17.00;99.90
19665;DHT22;9980;51.020;7.772;2023-09-19T04:32:40;16.90;99.90
19665;DHT22;9980;51.020;7.772;2023-09-19T04:35:09;16.90;99.90
19665;DHT22;9980;51.020;7.772;2023-09-19T04:37:40;16.90;99.90
19665;DHT22;9980;51.020;7.772;2023-09-19T04:40:09;16.90;99.90
19665;DHT22;9980;51.020;7.772;2023-09-19T04:42:41;16.90;99.90
19665;DHT22;9980;51.020;7.772;2023-09-19T04:45:09;16.80;99.90
19665;DHT22;9980;51.020;7.772;2023-09-19T04:47:37;16.80;99.90
19665;DHT22;9980;51.020;7.772;2023-09-19T04:50:09;16.80;99.90
19665;DHT22;9980;51.020;7.772;2023-09-19T04:52:41;16.70;99.90
19665;DHT22;9980;51.020;7.772;2023-09-19T04:55:12;16.70;99.90
19665;DHT22;9980;51.020;7.772;2023-09-19T04:57:50;16.70;99.90
19665;DHT22;9980;51.020;7.772;2023-09-19T05:00:18;16.70;99.90
19665;DHT22;9980;51.020;7.772;2023-09-19T05:02:51;16.70;99.90
19665;DHT22;9980;51.020;7.772;2023-09-19T05:05:18;16.60;99.90
19665;DHT22;9980;51.020;7.772;2023-09-19T05:07:46;16.60;99.90
19665;DHT22;9980;51.020;7.772;2023-09-19T05:10:14;16.60;99.90
19665;DHT22;9980;51.020;7.772;2023-09-19T05:12:45;16.60;99.90
19665;DHT22;9980;51.020;7.772;2023-09-19T05:15:15;16.60;99.90
19665;DHT22;9980;51.020;7.772;2023-09-19T05:17:51;16.50;99.90
19665;DHT22;9980;51.020;7.772;2023-09-19T05:20:23;16.50;99.90
19665;DHT22;9980;51.020;7.772;2023-09-19T05:23:01;16.50;99.90
19665;DHT22;9980;51.020;7.772;2023-09-19T05:25:32;16.50;99.90
19665;DHT22;9980;51.020;7.772;2023-09-19T05:28:09;16.50;99.90
19665;DHT22;9980;51.020;7.772;2023-09-19T05:30:38;16.50;99.90
19665;DHT22;9980;51.020;7.772;2023-09-19T05:33:06;16.40;99.90
19665;DHT22;9980;51.020;7.772;2023-09-19T05:35:34;16.40;99.90
19665;DHT22;9980;51.020;7.772;2023-09-19T05:38:06;16.40;99.90
19665;DHT22;9980;51.020;7.772;2023-09-19T05:40:35;16.40;99.90
19665;DHT22;9980;51.020;7.772;2023-09-19T05:43:02;16.40;99.90
19665;DHT22;9980;51.020;7.772;2023-09-19T05:45:32;16.40;99.90
19665;DHT22;9980;51.020;7.772;2023-09-19T05:48:08;16.40;99.90
19665;DHT22;9980;51.020;7.772;2023-09-19T05:50:37;16.40;99.90
19665;DHT22;9980;51.020;7.772;2023-09-19T05:53:05;16.40;99.90
19665;DHT22;9980;51.020;7.772;2023-09-19T05:55:33;16.40;99.90
19665;DHT22;9980;51.020;7.772;2023-09-19T05:58:00;16.40;99.90
19665;DHT22;9980;51.020;7.772;2023-09-19T06:00:27;16.40;99.90
19665;DHT22;9980;51.020;7.772;2023-09-19T06:02:55;16.30;99.90
19665;DHT22;9980;51.020;7.772;2023-09-19T06:05:25;16.40;99.90
19665;DHT22;9980;51.020;7.772;2023-09-19T06:07:57;16.40;99.90
19665;DHT22;9980;51.020;7.772;2023-09-19T06:10:28;16.40;99.90
19665;DHT22;9980;51.020;7.772;2023-09-19T06:12:55;16.40;99.90
19665;DHT22;9980;51.020;7.772;2023-09-19T06:15:24;16.40;99.90
19665;DHT22;9980;51.020;7.772;2023-09-19T06:17:54;16.40;99.90
19665;DHT22;9980;51.020;7.772;2023-09-19T06:20:24;16.40;99.90
19665;DHT22;9980;51.020;7.772;2023-09-19T06:22:53;16.40;99.90
19665;DHT22;9980;51.020;7.772;2023-09-19T06:25:21;16.40;99.90
19665;DHT22;9980;51.020;7.772;2023-09-19T06:27:50;16.40;99.90
19665;DHT22;9980;51.020;7.772;2023-09-19T06:30:23;16.50;99.90
19665;DHT22;9980;51.020;7.772;2023-09-19T06:32:58;16.50;99.90
19665;DHT22;9980;51.020;7.772;2023-09-19T06:35:27;16.50;99.90
19665;DHT22;9980;51.020;7.772;2023-09-19T06:37:56;16.50;99.90
19665;DHT22;9980;51.020;7.772;2023-09-19T06:40:25;16.60;99.90
19665;DHT22;9980;51.020;7.772;2023-09-19T06:42:53;16.60;99.90
19665;DHT22;9980;51.020;7.772;2023-09-19T06:45:20;16.60;99.90
19665;DHT22;9980;51.020;7.772;2023-09-19T06:47:50;16.70;99.90
19665;DHT22;9980;51.020;7.772;2023-09-19T06:50:19;16.70;99.90
19665;DHT22;9980;51.020;7.772;2023-09-19T06:52:51;16.70;99.90
19665;DHT22;9980;51.020;7.772;2023-09-19T06:55:19;16.80;99.90
19665;DHT22;9980;51.020;7.772;2023-09-19T06:57:47;16.80;99.90
19665;DHT22;9980;51.020;7.772;2023-09-19T07:00:16;16.80;99.90
19665;DHT22;9980;51.020;7.772;2023-09-19T07:02:58;16.90;99.90
19665;DHT22;9980;51.020;7.772;2023-09-19T07:05:28;16.90;99.90
19665;DHT22;9980;51.020;7.772;2023-09-19T07:07:55;16.90;99.90
19665;DHT22;9980;51.020;7.772;2023-09-19T07:10:26;17.00;99.90
19665;DHT22;9980;51.020;7.772;2023-09-19T07:13:08;17.00;99.90
19665;DHT22;9980;51.020;7.772;2023-09-19T07:15:39;17.00;99.90
19665;DHT22;9980;51.020;7.772;2023-09-19T07:18:08;17.10;99.90
19665;DHT22;9980;51.020;7.772;2023-09-19T07:20:38;17.20;99.90
19665;DHT22;9980;51.020;7.772;2023-09-19T07:23:05;17.20;99.90
19665;DHT22;9980;51.020;7.772;2023-09-19T07:25:32;17.20;99.90
19665;DHT22;9980;51.020;7.772;2023-09-19T07:27:59;17.30;99.90
19665;DHT22;9980;51.020;7.772;2023-09-19T07:30:28;17.40;99.90
19665;DHT22;9980;51.020;7.772;2023-09-19T07:32:55;17.40;99.90
19665;DHT22;9980;51.020;7.772;2023-09-19T07:35:23;17.40;99.90
19665;DHT22;9980;51.020;7.772;2023-09-19T07:37:50;17.50;99.90
19665;DHT22;9980;51.020;7.772;2023-09-19T07:40:19;17.50;99.90
19665;DHT22;9980;51.020;7.772;2023-09-19T07:42:48;17.60;99.90
19665;DHT22;9980;51.020;7.772;2023-09-19T07:45:15;17.60;99.90
19665;DHT22;9980;51.020;7.772;2023-09-19T07:47:50;17.70;99.90
19665;DHT22;9980;51.020;7.772;2023-09-19T07:50:19;17.70;99.90
19665;DHT22;9980;51.020;7.772;2023-09-19T07:52:47;17.80;99.90
19665;DHT22;9980;51.020;7.772;2023-09-19T07:55:17;17.80;99.90
19665;DHT22;9980;51.020;7.772;2023-09-19T07:57:46;17.90;99.90
19665;DHT22;9980;51.020;7.772;2023-09-19T08:00:13;17.90;99.90
19665;DHT22;9980;51.020;7.772;2023-09-19T08:02:42;18.00;99.90
19665;DHT22;9980;51.020;7.772;2023-09-19T08:05:11;18.10;99.90
19665;DHT22;9980;51.020;7.772;2023-09-19T08:07:43;18.10;99.90
19665;DHT22;9980;51.020;7.772;2023-09-19T08:10:12;18.20;99.90
19665;DHT22;9980;51.020;7.772;2023-09-19T08:12:44;18.30;99.90
19665;DHT22;9980;51.020;7.772;2023-09-19T08:15:19;18.30;99.90
19665;DHT22;9980;51.020;7.772;2023-09-19T08:17:47;18.40;99.90
19665;DHT22;9980;51.020;7.772;2023-09-19T08:20:16;18.40;99.90
19665;DHT22;9980;51.020;7.772;2023-09-19T08:25:19;18.60;99.90
19665;DHT22;9980;51.020;7.772;2023-09-19T08:27:46;18.60;99.90
19665;DHT22;9980;51.020;7.772;2023-09-19T08:30:20;18.70;99.90
19665;DHT22;9980;51.020;7.772;2023-09-19T08:32:58;18.70;99.90
19665;DHT22;9980;51.020;7.772;2023-09-19T08:35:27;18.80;99.90
19665;DHT22;9980;51.020;7.772;2023-09-19T08:37:54;18.80;99.90
19665;DHT22;9980;51.020;7.772;2023-09-19T08:40:22;18.90;99.90
19665;DHT22;9980;51.020;7.772;2023-09-19T08:42:51;18.90;99.90
19665;DHT22;9980;51.020;7.772;2023-09-19T08:45:21;19.00;99.90
19665;DHT22;9980;51.020;7.772;2023-09-19T08:50:56;19.10;99.90
19665;DHT22;9980;51.020;7.772;2023-09-19T08:56:19;19.20;99.90
19665;DHT22;9980;51.020;7.772;2023-09-19T08:58:57;19.30;99.90
19665;DHT22;9980;51.020;7.772;2023-09-19T09:01:29;19.30;99.90
19665;DHT22;9980;51.020;7.772;2023-09-19T09:03:59;19.40;99.90
19665;DHT22;9980;51.020;7.772;2023-09-19T09:06:30;19.50;99.90
19665;DHT22;9980;51.020;7.772;2023-09-19T09:08:59;19.50;99.90
19665;DHT22;9980;51.020;7.772;2023-09-19T09:11:26;19.60;99.90
19665;DHT22;9980;51.020;7.772;2023-09-19T09:13:54;19.60;99.90
19665;DHT22;9980;51.020;7.772;2023-09-19T09:16:22;19.70;99.90
19665;DHT22;9980;51.020;7.772;2023-09-19T09:18:52;19.70;99.90
19665;DHT22;9980;51.020;7.772;2023-09-19T09:21:22;19.80;99.90
19665;DHT22;9980;51.020;7.772;2023-09-19T09:23:51;19.90;99.90
19665;DHT22;9980;51.020;7.772;2023-09-19T09:26:49;19.90;99.90
19665;DHT22;9980;51.020;7.772;2023-09-19T09:29:42;20.00;99.90
19665;DHT22;9980;51.020;7.772;2023-09-19T09:32:27;20.00;99.90
19665;DHT22;9980;51.020;7.772;2023-09-19T09:35:08;20.10;99.90
19665;DHT22;9980;51.020;7.772;2023-09-19T09:37:36;20.10;99.90
19665;DHT22;9980;51.020;7.772;2023-09-19T09:40:05;20.20;99.90
19665;DHT22;9980;51.020;7.772;2023-09-19T09:42:42;20.20;99.90
19665;DHT22;9980;51.020;7.772;2023-09-19T09:47:55;20.30;99.90
19665;DHT22;9980;51.020;7.772;2023-09-19T09:50:26;20.40;99.50
19665;DHT22;9980;51.020;7.772;2023-09-19T09:53:24;20.40;99.60
19665;DHT22;9980;51.020;7.772;2023-09-19T09:58:27;20.50;99.60
19665;DHT22;9980;51.020;7.772;2023-09-19T10:00:59;20.60;99.60
19665;DHT22;9980;51.020;7.772;2023-09-19T10:03:34;20.60;98.80
19665;DHT22;9980;51.020;7.772;2023-09-19T10:06:11;20.60;98.60
19665;DHT22;9980;51.020;7.772;2023-09-19T10:09:08;20.70;98.80
19665;DHT22;9980;51.020;7.772;2023-09-19T10:11:43;20.80;99.20
19665;DHT22;9980;51.020;7.772;2023-09-19T10:14:16;20.80;99.30
19665;DHT22;9980;51.020;7.772;2023-09-19T10:16:47;20.90;98.80
19665;DHT22;9980;51.020;7.772;2023-09-19T10:22:34;21.10;98.00
19665;DHT22;9980;51.020;7.772;2023-09-19T10:25:04;21.20;98.00
19665;DHT22;9980;51.020;7.772;2023-09-19T10:27:35;21.20;98.50
19665;DHT22;9980;51.020;7.772;2023-09-19T10:30:08;21.30;98.20
19665;DHT22;9980;51.020;7.772;2023-09-19T10:32:40;21.40;98.20
19665;DHT22;9980;51.020;7.772;2023-09-19T10:35:08;21.50;98.20
19665;DHT22;9980;51.020;7.772;2023-09-19T10:37:39;21.50;97.60
19665;DHT22;9980;51.020;7.772;2023-09-19T10:40:08;21.60;97.40
19665;DHT22;9980;51.020;7.772;2023-09-19T10:42:38;21.60;97.50
19665;DHT22;9980;51.020;7.772;2023-09-19T10:45:08;21.60;97.30
19665;DHT22;9980;51.020;7.772;2023-09-19T10:47:40;21.70;96.90
19665;DHT22;9980;51.020;7.772;2023-09-19T10:50:07;21.70;97.00
19665;DHT22;9980;51.020;7.772;2023-09-19T10:52:40;21.70;97.40
19665;DHT22;9980;51.020;7.772;2023-09-19T10:55:09;21.80;96.80
19665;DHT22;9980;51.020;7.772;2023-09-19T10:57:44;21.80;96.80
19665;DHT22;9980;51.020;7.772;2023-09-19T11:00:13;21.80;96.70
19665;DHT22;9980;51.020;7.772;2023-09-19T11:06:01;21.90;96.60
19665;DHT22;9980;51.020;7.772;2023-09-19T11:08:57;21.90;96.30
19665;DHT22;9980;51.020;7.772;2023-09-19T11:11:47;22.00;96.30
19665;DHT22;9980;51.020;7.772;2023-09-19T11:30:47;22.20;95.70
19665;DHT22;9980;51.020;7.772;2023-09-19T11:33:23;22.20;95.40
19665;DHT22;9980;51.020;7.772;2023-09-19T11:36:14;22.20;95.10
19665;DHT22;9980;51.020;7.772;2023-09-19T11:46:27;22.30;95.00
19665;DHT22;9980;51.020;7.772;2023-09-19T11:48:55;22.30;95.50
19665;DHT22;9980;51.020;7.772;2023-09-19T11:51:40;22.30;95.20
19665;DHT22;9980;51.020;7.772;2023-09-19T11:54:12;22.40;95.00
19665;DHT22;9980;51.020;7.772;2023-09-19T11:56:45;22.40;94.70
19665;DHT22;9980;51.020;7.772;2023-09-19T11:59:23;22.50;94.90
19665;DHT22;9980;51.020;7.772;2023-09-19T12:02:05;22.60;94.40
19665;DHT22;9980;51.020;7.772;2023-09-19T12:04:40;22.70;94.80
19665;DHT22;9980;51.020;7.772;2023-09-19T12:07:12;22.70;94.70
19665;DHT22;9980;51.020;7.772;2023-09-19T12:09:45;22.80;94.40
19665;DHT22;9980;51.020;7.772;2023-09-19T12:12:22;22.80;93.90
19665;DHT22;9980;51.020;7.772;2023-09-19T12:14:50;22.80;93.70
19665;DHT22;9980;51.020;7.772;2023-09-19T12:17:18;22.80;94.20
19665;DHT22;9980;51.020;7.772;2023-09-19T12:19:56;22.90;93.90
19665;DHT22;9980;51.020;7.772;2023-09-19T12:22:23;22.90;93.80
19665;DHT22;9980;51.020;7.772;2023-09-19T12:24:51;23.00;94.10
19665;DHT22;9980;51.020;7.772;2023-09-19T12:27:21;23.00;95.00
19665;DHT22;9980;51.020;7.772;2023-09-19T12:29:49;23.00;94.50
19665;DHT22;9980;51.020;7.772;2023-09-19T12:32:16;23.10;94.40
19665;DHT22;9980;51.020;7.772;2023-09-19T12:34:52;23.10;93.60
19665;DHT22;9980;51.020;7.772;2023-09-19T12:37:21;23.10;93.40
19665;DHT22;9980;51.020;7.772;2023-09-19T12:39:51;23.20;94.00
19665;DHT22;9980;51.020;7.772;2023-09-19T12:42:24;23.10;93.40
19665;DHT22;9980;51.020;7.772;2023-09-19T12:44:59;23.20;94.00
19665;DHT22;9980;51.020;7.772;2023-09-19T12:47:28;23.20;93.40
19665;DHT22;9980;51.020;7.772;2023-09-19T12:52:47;23.20;92.30
19665;DHT22;9980;51.020;7.772;2023-09-19T12:55:27;23.20;93.00
19665;DHT22;9980;51.020;7.772;2023-09-19T13:00:41;23.10;93.10
19665;DHT22;9980;51.020;7.772;2023-09-19T13:05:56;23.10;92.70
19665;DHT22;9980;51.020;7.772;2023-09-19T13:08:38;23.10;92.60
19665;DHT22;9980;51.020;7.772;2023-09-19T13:14:18;23.20;93.20
19665;DHT22;9980;51.020;7.772;2023-09-19T13:17:01;23.20;93.10
19665;DHT22;9980;51.020;7.772;2023-09-19T13:19:52;23.30;92.70
19665;DHT22;9980;51.020;7.772;2023-09-19T13:25:12;23.40;91.40
19665;DHT22;9980;51.020;7.772;2023-09-19T13:27:54;23.40;92.10
19665;DHT22;9980;51.020;7.772;2023-09-19T13:30:24;23.50;91.70
19665;DHT22;9980;51.020;7.772;2023-09-19T13:33:04;23.50;91.90
19665;DHT22;9980;51.020;7.772;2023-09-19T13:35:33;23.60;91.50
19665;DHT22;9980;51.020;7.772;2023-09-19T13:38:00;23.60;91.50
19665;DHT22;9980;51.020;7.772;2023-09-19T13:40:28;23.60;91.30
19665;DHT22;9980;51.020;7.772;2023-09-19T13:42:58;23.60;90.80
19665;DHT22;9980;51.020;7.772;2023-09-19T13:45:25;23.60;91.30
19665;DHT22;9980;51.020;7.772;2023-09-19T13:47:57;23.60;91.20
19665;DHT22;9980;51.020;7.772;2023-09-19T13:50:25;23.50;91.50
19665;DHT22;9980;51.020;7.772;2023-09-19T13:52:55;23.50;91.50
19665;DHT22;9980;51.020;7.772;2023-09-19T13:55:22;23.60;91.30
19665;DHT22;9980;51.020;7.772;2023-09-19T13:57:49;23.60;91.30
19665;DHT22;9980;51.020;7.772;2023-09-19T14:00:19;23.60;91.40
19665;DHT22;9980;51.020;7.772;2023-09-19T14:02:46;23.60;91.70
19665;DHT22;9980;51.020;7.772;2023-09-19T14:05:15;23.70;91.80
19665;DHT22;9980;51.020;7.772;2023-09-19T14:07:43;23.70;90.80
19665;DHT22;9980;51.020;7.772;2023-09-19T14:10:11;23.70;90.60
19665;DHT22;9980;51.020;7.772;2023-09-19T14:12:39;23.70;90.50
19665;DHT22;9980;51.020;7.772;2023-09-19T14:15:09;23.70;90.90
19665;DHT22;9980;51.020;7.772;2023-09-19T14:17:38;23.60;90.50
19665;DHT22;9980;51.020;7.772;2023-09-19T14:20:07;23.60;90.30
19665;DHT22;9980;51.020;7.772;2023-09-19T14:22:37;23.60;90.20
19665;DHT22;9980;51.020;7.772;2023-09-19T14:25:05;23.60;90.30
19665;DHT22;9980;51.020;7.772;2023-09-19T14:27:32;23.50;90.00
19665;DHT22;9980;51.020;7.772;2023-09-19T14:29:59;23.50;90.40
19665;DHT22;9980;51.020;7.772;2023-09-19T14:32:26;23.40;90.10
19665;DHT22;9980;51.020;7.772;2023-09-19T14:34:53;23.40;90.00
19665;DHT22;9980;51.020;7.772;2023-09-19T14:37:20;23.50;90.20
19665;DHT22;9980;51.020;7.772;2023-09-19T14:39:47;23.30;90.00
19665;DHT22;9980;51.020;7.772;2023-09-19T14:42:14;23.30;89.40
19665;DHT22;9980;51.020;7.772;2023-09-19T14:44:44;23.20;90.20
19665;DHT22;9980;51.020;7.772;2023-09-19T14:47:11;23.20;90.50
19665;DHT22;9980;51.020;7.772;2023-09-19T14:49:40;23.20;90.30
19665;DHT22;9980;51.020;7.772;2023-09-19T14:52:08;23.10;90.50
19665;DHT22;9980;51.020;7.772;2023-09-19T14:54:36;23.10;90.40
19665;DHT22;9980;51.020;7.772;2023-09-19T14:57:08;23.10;91.10
19665;DHT22;9980;51.020;7.772;2023-09-19T14:59:36;23.10;90.60
19665;DHT22;9980;51.020;7.772;2023-09-19T15:02:06;23.00;90.90
19665;DHT22;9980;51.020;7.772;2023-09-19T15:04:34;23.00;90.60
19665;DHT22;9980;51.020;7.772;2023-09-19T15:07:01;23.00;90.50
19665;DHT22;9980;51.020;7.772;2023-09-19T15:09:29;23.00;90.90
19665;DHT22;9980;51.020;7.772;2023-09-19T15:11:58;23.00;90.80
19665;DHT22;9980;51.020;7.772;2023-09-19T15:14:25;22.90;90.50
19665;DHT22;9980;51.020;7.772;2023-09-19T15:16:52;22.90;90.70
19665;DHT22;9980;51.020;7.772;2023-09-19T15:19:20;22.80;90.50
19665;DHT22;9980;51.020;7.772;2023-09-19T15:21:49;22.80;90.80
19665;DHT22;9980;51.020;7.772;2023-09-19T15:24:16;22.80;90.40
19665;DHT22;9980;51.020;7.772;2023-09-19T15:26:43;22.70;90.50
19665;DHT22;9980;51.020;7.772;2023-09-19T15:29:11;22.70;90.70
19665;DHT22;9980;51.020;7.772;2023-09-19T15:31:39;22.70;90.90
19665;DHT22;9980;51.020;7.772;2023-09-19T15:34:08;22.70;90.90
19665;DHT22;9980;51.020;7.772;2023-09-19T15:36:36;22.60;90.80
19665;DHT22;9980;51.020;7.772;2023-09-19T15:39:07;22.60;91.10
19665;DHT22;9980;51.020;7.772;2023-09-19T15:41:41;22.60;90.70
19665;DHT22;9980;51.020;7.772;2023-09-19T15:44:15;22.60;90.60
19665;DHT22;9980;51.020;7.772;2023-09-19T15:46:44;22.50;90.50
19665;DHT22;9980;51.020;7.772;2023-09-19T15:49:12;22.50;90.60
19665;DHT22;9980;51.020;7.772;2023-09-19T15:51:39;22.50;90.90
19665;DHT22;9980;51.020;7.772;2023-09-19T15:54:11;22.40;90.70
19665;DHT22;9980;51.020;7.772;2023-09-19T15:56:42;22.30;90.50
19665;DHT22;9980;51.020;7.772;2023-09-19T15:59:11;22.30;90.50
19665;DHT22;9980;51.020;7.772;2023-09-19T16:01:42;22.20;90.70
19665;DHT22;9980;51.020;7.772;2023-09-19T16:04:11;22.10;91.20
19665;DHT22;9980;51.020;7.772;2023-09-19T16:06:39;22.10;91.10
19665;DHT22;9980;51.020;7.772;2023-09-19T16:09:08;22.00;91.30
19665;DHT22;9980;51.020;7.772;2023-09-19T16:11:37;22.00;91.50
19665;DHT22;9980;51.020;7.772;2023-09-19T16:14:04;21.90;91.30
19665;DHT22;9980;51.020;7.772;2023-09-19T16:16:33;21.90;91.70
19665;DHT22;9980;51.020;7.772;2023-09-19T16:19:03;21.80;91.90
19665;DHT22;9980;51.020;7.772;2023-09-19T16:21:34;21.80;91.60
19665;DHT22;9980;51.020;7.772;2023-09-19T16:24:03;21.80;91.70
19665;DHT22;9980;51.020;7.772;2023-09-19T16:26:33;21.70;91.50
19665;DHT22;9980;51.020;7.772;2023-09-19T16:29:00;21.70;91.70
19665;DHT22;9980;51.020;7.772;2023-09-19T16:31:28;21.70;91.90
19665;DHT22;9980;51.020;7.772;2023-09-19T16:33:56;21.60;91.80
19665;DHT22;9980;51.020;7.772;2023-09-19T16:36:25;21.60;91.90
19665;DHT22;9980;51.020;7.772;2023-09-19T16:38:52;21.60;91.70
19665;DHT22;9980;51.020;7.772;2023-09-19T16:41:20;21.50;92.10
19665;DHT22;9980;51.020;7.772;2023-09-19T16:43:47;21.50;91.80
19665;DHT22;9980;51.020;7.772;2023-09-19T16:46:15;21.40;91.80
19665;DHT22;9980;51.020;7.772;2023-09-19T16:48:47;21.40;91.90
19665;DHT22;9980;51.020;7.772;2023-09-19T16:51:30;21.40;91.80
19665;DHT22;9980;51.020;7.772;2023-09-19T16:53:58;21.30;92.10
19665;DHT22;9980;51.020;7.772;2023-09-19T16:56:25;21.30;91.80
19665;DHT22;9980;51.020;7.772;2023-09-19T16:58:53;21.30;91.90
19665;DHT22;9980;51.020;7.772;2023-09-19T17:01:20;21.30;91.90
19665;DHT22;9980;51.020;7.772;2023-09-19T17:03:52;21.20;92.10
19665;DHT22;9980;51.020;7.772;2023-09-19T17:06:19;21.20;92.00
19665;DHT22;9980;51.020;7.772;2023-09-19T17:08:49;21.10;92.00
19665;DHT22;9980;51.020;7.772;2023-09-19T17:11:18;21.10;91.80
19665;DHT22;9980;51.020;7.772;2023-09-19T17:13:50;21.00;91.90
19665;DHT22;9980;51.020;7.772;2023-09-19T17:16:19;21.00;92.00
19665;DHT22;9980;51.020;7.772;2023-09-19T17:18:53;20.90;92.20
19665;DHT22;9980;51.020;7.772;2023-09-19T17:21:23;20.80;92.20
19665;DHT22;9980;51.020;7.772;2023-09-19T17:23:50;20.80;92.30
19665;DHT22;9980;51.020;7.772;2023-09-19T17:26:18;20.70;92.40